createdAt,value
2022-10-16T00:02:16.438Z,100545.09
2022-10-16T00:07:19.274Z,100546.94
2022-10-16T00:12:22.228Z,100551.63
2022-10-16T00:17:25.070Z,100553.66
2022-10-16T00:22:28.139Z,100562.34
2022-10-16T00:27:31.227Z,100567.19
2022-10-16T00:32:34.200Z,100566.19
2022-10-16T00:37:37.027Z,100568.84
2022-10-16T00:42:40.115Z,100561.66
2022-10-16T00:47:50.130Z,100578.69
2022-10-16T00:52:53.343Z,100578.38
2022-10-16T00:57:56.982Z,100569.41
2022-10-16T01:03:01.365Z,100582.13
2022-10-16T01:08:15.239Z,100582.13
2022-10-16T01:13:26.007Z,100582.50
2022-10-16T01:18:35.029Z,100593.03
2022-10-16T01:24:02.690Z,100598.91
2022-10-16T01:29:20.167Z,100604.78
2022-10-16T01:34:34.640Z,100605.81
2022-10-16T01:39:40.877Z,100606.31
2022-10-16T01:44:44.736Z,100608.69
2022-10-16T01:49:47.781Z,100616.03
2022-10-16T01:54:51.975Z,100630.81
2022-10-16T01:59:57.644Z,100628.13
2022-10-16T02:05:12.219Z,100631.25
2022-10-16T02:10:15.147Z,100621.94
2022-10-16T02:15:17.871Z,100623.56
2022-10-16T02:20:26.231Z,100633.53
2022-10-16T02:25:33.389Z,100635.50
2022-10-16T02:30:53.874Z,100644.59
2022-10-16T02:35:58.180Z,100636.41
2022-10-16T02:41:01.402Z,100640.69
2022-10-16T02:46:04.325Z,100643.31
2022-10-16T02:51:07.429Z,100647.59
2022-10-16T02:56:10.326Z,100654.53
2022-10-16T03:01:13.829Z,100648.03
2022-10-16T03:06:16.497Z,100661.78
2022-10-16T03:11:19.302Z,100662.03
2022-10-16T03:16:22.141Z,100674.56
2022-10-16T03:21:25.871Z,100675.50
2022-10-16T03:26:28.698Z,100686.19
2022-10-16T03:31:31.791Z,100691.44
2022-10-16T03:36:34.783Z,100692.50
2022-10-16T03:41:38.134Z,100685.97
2022-10-16T03:46:40.973Z,100693.72
2022-10-16T03:51:43.821Z,100689.00
2022-10-16T03:56:46.686Z,100695.34
2022-10-16T04:01:49.473Z,100698.53
2022-10-16T04:06:52.523Z,100697.97
2022-10-16T04:11:55.354Z,100705.69
2022-10-16T04:16:58.067Z,100712.44
2022-10-16T04:22:00.833Z,100705.63
2022-10-16T04:27:03.917Z,100714.69
2022-10-16T04:32:06.770Z,100727.19
2022-10-16T04:37:09.341Z,100727.63
2022-10-16T04:42:12.479Z,100731.53
2022-10-16T04:47:15.314Z,100731.00
2022-10-16T04:52:19.869Z,100735.66
2022-10-16T04:57:22.556Z,100724.06
2022-10-16T05:02:25.783Z,100727.88
2022-10-16T05:07:28.945Z,100738.72
2022-10-16T05:12:32.049Z,100745.31
2022-10-16T05:17:34.923Z,100750.06
2022-10-16T05:22:37.757Z,100759.25
2022-10-16T05:27:40.337Z,100762.91
2022-10-16T05:32:43.221Z,100765.84
2022-10-16T05:37:47.795Z,100774.47
2022-10-16T05:42:55.330Z,100783.53
2022-10-16T05:47:58.098Z,100782.13
2022-10-16T05:53:01.000Z,100786.03
2022-10-16T05:58:03.856Z,100783.78
2022-10-16T06:03:07.932Z,100798.53
2022-10-16T06:08:10.789Z,100795.72
2022-10-16T06:13:14.649Z,100797.63
2022-10-16T06:18:17.495Z,100798.53
2022-10-16T06:23:20.380Z,100802.75
2022-10-16T06:28:23.355Z,100808.50
2022-10-16T06:33:26.359Z,100824.13
2022-10-16T06:38:29.253Z,100829.22
2022-10-16T06:43:33.201Z,100849.69
2022-10-16T06:48:36.095Z,100840.44
2022-10-16T06:53:54.867Z,100844.41
2022-10-16T06:59:04.387Z,100848.56
2022-10-16T07:04:07.167Z,100861.34
2022-10-16T07:09:11.585Z,100869.94
2022-10-16T07:14:19.134Z,100872.38
2022-10-16T07:19:22.307Z,100880.47
2022-10-16T07:24:25.895Z,100879.41
2022-10-16T07:29:28.746Z,100884.28
2022-10-16T07:34:31.500Z,100885.91
2022-10-16T07:39:34.815Z,100900.09
2022-10-16T07:44:38.220Z,100884.09
2022-10-16T07:49:41.029Z,100890.09
2022-10-16T07:54:43.879Z,100891.25
2022-10-16T07:59:47.415Z,100894.53
2022-10-16T08:04:51.310Z,100905.16
2022-10-16T08:09:54.130Z,100907.78
2022-10-16T08:14:56.842Z,100917.75
2022-10-16T08:19:59.682Z,100920.38
2022-10-16T08:25:02.634Z,100918.81
2022-10-16T08:30:05.810Z,100916.31
2022-10-16T08:35:10.793Z,100930.16
2022-10-16T08:40:28.964Z,100922.13
2022-10-16T08:45:50.206Z,100924.66
2022-10-16T08:50:53.934Z,100938.72
2022-10-16T08:55:57.060Z,100937.97
2022-10-16T09:01:21.564Z,100938.91
2022-10-16T09:06:30.385Z,100935.81
2022-10-16T09:11:54.910Z,100936.13
2022-10-16T09:17:04.681Z,100925.16
2022-10-16T09:22:18.038Z,100927.13
2022-10-16T09:27:21.001Z,100929.09
2022-10-16T09:32:24.215Z,100935.53
2022-10-16T09:37:27.798Z,100931.16
2022-10-16T09:42:37.803Z,100936.03
2022-10-16T09:47:43.580Z,100939.63
2022-10-16T09:52:46.330Z,100934.16
2022-10-16T09:57:53.139Z,100940.88
2022-10-16T10:02:56.355Z,100939.22
2022-10-16T10:08:01.402Z,100937.06
2022-10-16T10:13:04.379Z,100917.81
2022-10-16T10:18:18.746Z,100908.81
2022-10-16T10:23:23.837Z,100908.50
2022-10-16T10:28:54.957Z,100915.59
2022-10-16T10:34:19.478Z,100913.19
2022-10-16T10:39:29.022Z,100914.91
2022-10-16T10:44:43.804Z,100918.22
2022-10-16T10:50:07.433Z,100917.22
2022-10-16T10:55:21.459Z,100923.63
2022-10-16T11:00:45.478Z,100909.13
2022-10-16T11:05:57.666Z,100899.63
2022-10-16T11:11:32.349Z,100884.19
2022-10-16T11:16:47.943Z,100879.47
2022-10-16T11:22:07.580Z,100879.75
2022-10-16T11:27:16.340Z,100883.41
2022-10-16T11:32:26.319Z,100870.38
2022-10-16T11:37:33.425Z,100861.84
2022-10-16T11:42:45.559Z,100857.13
2022-10-16T11:48:10.121Z,100861.19
2022-10-16T11:53:24.622Z,100870.19
2022-10-16T11:58:53.229Z,100856.00
2022-10-16T12:04:14.730Z,100861.19
2022-10-16T12:09:31.818Z,100868.00
2022-10-16T12:14:42.980Z,100860.38
2022-10-16T12:20:00.939Z,100866.63
2022-10-16T12:25:04.126Z,100858.63
2022-10-16T12:30:07.542Z,100853.97
2022-10-16T12:35:25.059Z,100865.44
2022-10-16T12:40:27.666Z,100860.09
2022-10-16T12:45:34.957Z,100850.63
2022-10-16T12:50:40.350Z,100864.31
2022-10-16T12:55:51.231Z,100870.50
2022-10-16T13:01:19.367Z,100865.97
2022-10-16T13:06:48.639Z,100867.44
2022-10-16T13:12:06.658Z,100867.25
2022-10-16T13:17:28.101Z,100872.63
2022-10-16T13:22:42.663Z,100879.06
2022-10-16T13:28:07.674Z,100879.25
2022-10-16T13:33:22.157Z,100873.03
2022-10-16T13:38:33.092Z,100864.75
2022-10-16T13:43:57.609Z,100869.72
2022-10-16T13:49:04.125Z,100868.91
2022-10-16T13:54:12.566Z,100879.69
2022-10-16T13:59:27.886Z,100881.75
2022-10-16T14:04:33.345Z,100880.69
2022-10-16T14:09:37.584Z,100873.66
2022-10-16T14:14:43.642Z,100881.34
2022-10-16T14:19:54.751Z,100882.16
2022-10-16T14:25:02.194Z,100894.59
2022-10-16T14:30:25.353Z,100892.34
2022-10-16T14:35:28.049Z,100888.16
2022-10-16T14:40:33.564Z,100891.28
2022-10-16T14:45:36.875Z,100889.22
2022-10-16T14:50:40.000Z,100888.78
2022-10-16T14:55:43.408Z,100883.19
2022-10-16T15:00:46.854Z,100883.41
2022-10-16T15:05:49.598Z,100890.66
2022-10-16T15:10:52.620Z,100901.63
2022-10-16T15:15:55.591Z,100906.72
2022-10-16T15:20:58.269Z,100908.06
2022-10-16T15:26:01.271Z,100905.28
2022-10-16T15:31:05.465Z,100906.00
2022-10-16T15:36:08.903Z,100897.28
2022-10-16T15:41:12.769Z,100916.53
2022-10-16T15:46:16.329Z,100920.63
2022-10-16T15:51:20.095Z,100935.09
2022-10-16T15:56:23.420Z,100947.97
2022-10-16T16:01:27.118Z,100949.44
2022-10-16T16:06:30.566Z,100959.41
2022-10-16T16:11:38.601Z,100969.91
2022-10-16T16:16:42.435Z,100979.81
2022-10-16T16:21:45.496Z,100985.72
2022-10-16T16:26:48.361Z,100995.41
2022-10-16T16:31:51.226Z,101002.06
2022-10-16T16:36:54.990Z,101008.16
2022-10-16T16:41:59.566Z,101015.88
2022-10-16T16:47:03.093Z,101018.28
2022-10-16T16:52:05.718Z,101021.00
2022-10-16T16:57:08.653Z,101021.19
2022-10-16T17:02:11.402Z,101036.09
2022-10-16T17:07:14.389Z,101043.09
2022-10-16T17:12:17.504Z,101054.28
2022-10-16T17:17:20.345Z,101058.44
2022-10-16T17:22:23.010Z,101078.28
2022-10-16T17:27:25.965Z,101079.38
2022-10-16T17:32:28.939Z,101084.22
2022-10-16T17:37:33.531Z,101089.69
2022-10-16T17:42:36.933Z,101103.84
2022-10-16T17:47:41.877Z,101114.81
2022-10-16T17:52:45.181Z,101123.28
2022-10-16T17:57:48.147Z,101122.25
2022-10-16T18:02:51.078Z,101116.56
2022-10-16T18:07:58.379Z,101112.13
2022-10-16T18:13:01.875Z,101117.47
2022-10-16T18:18:04.938Z,101116.38
2022-10-16T18:23:07.567Z,101136.19
2022-10-16T18:28:10.421Z,101141.28
2022-10-16T18:33:15.604Z,101133.38
2022-10-16T18:38:18.640Z,101137.84
2022-10-16T18:43:21.530Z,101147.94
2022-10-16T18:48:25.245Z,101149.41
2022-10-16T18:58:31.977Z,101141.66
2022-10-16T19:03:35.344Z,101143.25
2022-10-16T19:08:39.021Z,101149.31
2022-10-16T19:13:43.042Z,101155.41
2022-10-16T19:18:46.429Z,101155.19
2022-10-16T19:23:53.496Z,101164.88
2022-10-16T19:28:58.878Z,101177.56
2022-10-16T19:34:03.479Z,101196.94
2022-10-16T19:39:17.640Z,101187.88
2022-10-16T19:44:20.467Z,101189.59
2022-10-16T19:49:23.179Z,101201.38
2022-10-16T19:54:27.384Z,101206.28
2022-10-16T19:59:30.441Z,101217.38
2022-10-16T20:04:33.240Z,101220.75
2022-10-16T20:09:36.255Z,101244.28
2022-10-16T20:14:39.050Z,101248.66
2022-10-16T20:19:41.871Z,101254.25
2022-10-16T20:24:44.734Z,101253.00
2022-10-16T20:29:47.339Z,101265.47
2022-10-16T20:34:50.426Z,101273.03
2022-10-16T20:39:53.226Z,101271.50
2022-10-16T20:44:55.969Z,101283.38
2022-10-16T20:49:58.553Z,101287.03
2022-10-16T20:55:01.440Z,101274.47
2022-10-16T21:00:08.236Z,101291.78
2022-10-16T21:05:11.100Z,101287.03
2022-10-16T21:10:14.114Z,101299.50
2022-10-16T21:15:16.917Z,101297.81
2022-10-16T21:20:19.700Z,101296.81
2022-10-16T21:25:22.488Z,101296.81
2022-10-16T21:30:25.683Z,101305.78
2022-10-16T21:35:30.612Z,101302.72
2022-10-16T21:40:34.045Z,101311.38
2022-10-16T21:45:36.706Z,101314.03
2022-10-16T21:50:39.311Z,101325.38
2022-10-16T21:55:42.660Z,101319.75
2022-10-16T22:00:45.422Z,101319.88
2022-10-16T22:05:48.455Z,101322.22
2022-10-16T22:10:51.225Z,101340.97
2022-10-16T22:15:56.060Z,101333.38
2022-10-16T22:20:59.172Z,101331.84
2022-10-16T22:26:04.604Z,101342.78
2022-10-16T22:31:14.875Z,101345.69
2022-10-16T22:36:17.747Z,101353.94
2022-10-16T22:41:21.373Z,101338.41
2022-10-16T22:46:26.660Z,101340.47
2022-10-16T22:51:29.564Z,101355.72
2022-10-16T22:56:32.370Z,101366.88
2022-10-16T23:01:40.905Z,101364.63
2022-10-16T23:06:43.724Z,101385.53
2022-10-16T23:11:46.575Z,101376.84
2022-10-16T23:16:49.965Z,101373.72
2022-10-16T23:21:52.788Z,101383.78
2022-10-16T23:26:55.526Z,101388.50
2022-10-16T23:31:58.519Z,101380.53
2022-10-16T23:37:03.801Z,101387.28
2022-10-16T23:42:06.617Z,101382.06
2022-10-16T23:47:09.256Z,101388.50
2022-10-16T23:52:11.974Z,101385.72
2022-10-16T23:57:15.387Z,101398.13
